Time;durP1;ratioP1;P1;durP2;ratioP2;P2;SDS_P1;SDS_P2;PMS_P1;PMS_P2;Temp;Humidity;BMP_temperature;BMP_pressure;BME280_temperature;BME280_humidity;BME280_pressure;Samples;Min_cycle;Max_cycle;Signal;HPM_P1;HPM_P2
2021/09/02 00:01:11;;;;;;;10.15;4.45;;;;;;;17.51;52.17;100253.81;4987058;28;20045;-24
2021/09/02 00:03:36;;;;;;;6.20;3.70;;;;;;;17.70;51.97;100253.38;4988513;28;20042;-23
2021/09/02 00:06:02;;;;;;;7.00;4.07;;;;;;;17.35;52.38;100241.31;4987993;28;20041;-23
2021/09/02 00:08:27;;;;;;;5.55;3.50;;;;;;;17.21;53.02;100262.50;4986991;28;20117;-23
2021/09/02 00:10:53;;;;;;;6.80;3.80;;;;;;;17.06;53.36;100252.38;4987842;28;20026;-24
2021/09/02 00:13:18;;;;;;;7.80;3.60;;;;;;;16.90;53.19;100245.25;4988155;28;20053;-23
2021/09/02 00:15:44;;;;;;;6.72;3.83;;;;;;;16.93;53.04;100244.75;4988185;28;20049;-24
2021/09/02 00:18:09;;;;;;;8.02;3.70;;;;;;;17.03;53.26;100263.69;4986642;28;20032;-23
2021/09/02 00:20:35;;;;;;;6.95;3.78;;;;;;;17.34;52.33;100269.31;4987081;28;20124;-24
2021/09/02 00:23:00;;;;;;;7.03;4.10;;;;;;;17.19;52.58;100270.81;4987997;28;20037;-23
2021/09/02 00:25:26;;;;;;;6.88;4.00;;;;;;;17.12;52.63;100264.84;4988109;28;20038;-24
2021/09/02 00:27:51;;;;;;;6.13;3.75;;;;;;;17.03;52.96;100266.38;4986528;28;20137;-23
2021/09/02 00:30:17;;;;;;;6.18;3.80;;;;;;;16.85;53.23;100265.69;4970318;28;20065;-23
2021/09/02 00:32:42;;;;;;;6.68;3.88;;;;;;;16.80;53.44;100279.09;4988141;28;20045;-23
2021/09/02 00:35:08;;;;;;;6.38;3.28;;;;;;;16.60;53.65;100251.97;4987900;28;20034;-23
2021/09/02 00:37:34;;;;;;;7.10;4.00;;;;;;;16.78;53.23;100267.75;4988081;28;20803;-23
2021/09/02 00:39:59;;;;;;;6.50;3.88;;;;;;;16.95;52.64;100274.94;4987722;28;20026;-23
2021/09/02 00:42:25;;;;;;;7.20;4.05;;;;;;;16.95;52.29;100274.94;4987847;28;20034;-23
2021/09/02 00:44:50;;;;;;;7.32;3.50;;;;;;;16.90;52.13;100273.00;4987709;28;20034;-23
2021/09/02 00:47:16;;;;;;;6.03;3.22;;;;;;;16.86;52.18;100283.47;4987925;28;20030;-24
2021/09/02 00:49:42;;;;;;;7.53;3.00;;;;;;;16.92;51.63;100287.03;4987798;28;20034;-23
2021/09/02 00:52:09;;;;;;;6.03;3.50;;;;;;;16.89;51.53;100265.19;4986525;28;20034;-24
2021/09/02 00:54:35;;;;;;;5.53;3.50;;;;;;;16.99;51.21;100276.03;4986556;28;20030;-23
2021/09/02 00:57:00;;;;;;;8.00;4.20;;;;;;;16.98;51.61;100291.41;4987763;28;20062;-23
2021/09/02 00:59:26;;;;;;;6.25;3.72;;;;;;;17.09;51.20;100296.88;4987925;28;20030;-23
2021/09/02 01:01:53;;;;;;;7.72;3.45;;;;;;;17.09;51.30;100297.69;4987724;28;20027;-23
2021/09/02 01:04:18;;;;;;;6.25;3.35;;;;;;;17.10;50.99;100293.94;4987736;28;20109;-23
2021/09/02 01:06:45;;;;;;;7.50;4.43;;;;;;;17.05;51.37;100304.66;4986631;28;20085;-24
2021/09/02 01:09:12;;;;;;;9.30;3.67;;;;;;;17.02;50.98;100297.06;4986476;28;20513;-23
2021/09/02 01:11:37;;;;;;;6.55;3.75;;;;;;;17.06;50.78;100298.19;4986377;28;20414;-24
2021/09/02 01:14:03;;;;;;;7.25;3.75;;;;;;;17.17;50.80;100293.72;4987282;28;20035;-23
2021/09/02 01:16:28;;;;;;;7.05;3.85;;;;;;;17.20;50.35;100285.09;4987780;28;20060;-23
2021/09/02 01:18:54;;;;;;;7.00;3.50;;;;;;;17.17;50.90;100302.63;4987728;28;20064;-23
2021/09/02 01:21:19;;;;;;;6.38;3.28;;;;;;;17.14;50.51;100300.44;4988617;28;20038;-23
2021/09/02 01:23:45;;;;;;;7.40;3.50;;;;;;;17.06;50.78;100285.56;4990164;28;20030;-23
2021/09/02 01:26:24;;;;;;;7.68;3.95;;;;;;;16.96;50.84;100273.84;4990901;28;20385;-23
2021/09/02 01:28:49;;;;;;;5.70;3.10;;;;;;;16.93;51.12;100287.84;4989988;28;20050;-23
2021/09/02 01:31:17;;;;;;;7.00;4.30;;;;;;;16.86;51.53;100282.69;4991069;28;20037;-23
2021/09/02 01:33:44;;;;;;;6.72;3.78;;;;;;;16.90;51.33;100293.72;4990010;28;20045;-24
2021/09/02 01:36:10;;;;;;;6.20;3.45;;;;;;;16.89;52.05;100282.16;4990983;28;20034;-23
2021/09/02 01:38:36;;;;;;;7.40;3.70;;;;;;;16.92;51.36;100265.50;4990950;28;20052;-23
2021/09/02 01:41:02;;;;;;;8.05;4.00;;;;;;;17.13;50.76;100281.84;4989625;28;20030;-23
2021/09/02 01:43:27;;;;;;;6.78;3.88;;;;;;;17.03;51.03;100294.13;4989868;28;20069;-24
2021/09/02 01:45:53;;;;;;;7.70;4.10;;;;;;;16.80;51.35;100284.47;4991300;28;20069;-23
2021/09/02 01:48:18;;;;;;;6.70;3.80;;;;;;;16.82;51.37;100290.44;4990991;28;20522;-23
2021/09/02 01:50:43;;;;;;;7.63;4.47;;;;;;;16.82;51.51;100287.75;4989432;28;20530;-23
2021/09/02 01:53:11;;;;;;;8.77;3.80;;;;;;;16.56;52.04;100275.06;4991018;28;20071;-23
2021/09/02 01:55:36;;;;;;;6.70;3.70;;;;;;;16.75;51.72;100295.19;4990760;28;20046;-23
2021/09/02 01:58:02;;;;;;;6.20;3.65;;;;;;;16.94;51.41;100293.00;4989238;28;20070;-24
2021/09/02 02:00:27;;;;;;;8.00;4.13;;;;;;;16.85;51.56;100295.31;4989341;28;20034;-23
2021/09/02 02:02:53;;;;;;;7.93;3.67;;;;;;;16.75;51.91;100297.88;4990481;28;20030;-23
2021/09/02 02:05:19;;;;;;;8.15;4.38;;;;;;;16.72;51.66;100298.41;4990467;28;20406;-23
2021/09/02 02:07:44;;;;;;;6.68;4.15;;;;;;;16.68;52.32;100283.81;4989385;28;20154;-23
2021/09/02 02:10:12;;;;;;;6.57;4.03;;;;;;;16.45;52.25;100261.50;4990121;28;20069;-24
2021/09/02 02:12:38;;;;;;;8.43;4.28;;;;;;;16.62;51.97;100284.81;4990784;28;20033;-23
2021/09/02 02:15:05;;;;;;;8.85;3.95;;;;;;;16.64;51.86;100280.00;4990276;28;20125;-23
2021/09/02 02:17:30;;;;;;;9.95;4.20;;;;;;;16.95;51.37;100285.72;4990192;28;20030;-23
2021/09/02 02:19:56;;;;;;;8.88;4.43;;;;;;;16.89;51.50;100281.34;4990167;28;20430;-24
2021/09/02 02:22:21;;;;;;;8.88;4.60;;;;;;;16.78;51.84;100286.59;4990024;28;20092;-23
2021/09/02 02:24:47;;;;;;;8.40;4.15;;;;;;;16.73;52.04;100281.16;4989882;28;20045;-24
2021/09/02 02:27:12;;;;;;;8.60;4.28;;;;;;;16.63;52.26;100246.06;4989857;28;20100;-24
2021/09/02 02:29:38;;;;;;;9.60;4.10;;;;;;;16.72;52.08;100276.84;4990130;28;20033;-24
2021/09/02 02:32:03;;;;;;;9.13;4.35;;;;;;;16.62;52.50;100276.75;4989887;28;21062;-23
2021/09/02 02:34:29;;;;;;;7.55;4.30;;;;;;;16.53;52.73;100279.09;4989848;28;20022;-24
2021/09/02 02:36:54;;;;;;;7.03;4.47;;;;;;;16.54;52.67;100264.53;4990374;28;20133;-24
2021/09/02 02:39:20;;;;;;;8.70;4.50;;;;;;;16.40;53.01;100272.19;4989840;28;20030;-24
2021/09/02 02:41:45;;;;;;;9.48;4.13;;;;;;;16.35;53.16;100272.16;4990198;28;20053;-24
2021/09/02 02:44:11;;;;;;;9.25;4.85;;;;;;;16.31;53.55;100265.66;4989456;28;20065;-23
2021/09/02 02:46:36;;;;;;;8.10;4.78;;;;;;;16.19;55.21;100265.78;4989827;28;20482;-24
2021/09/02 02:49:02;;;;;;;9.07;4.80;;;;;;;16.29;54.22;100256.22;4989735;28;20038;-24
2021/09/02 02:51:27;;;;;;;9.45;4.93;;;;;;;16.06;54.59;100250.84;4989667;28;20538;-24
2021/09/02 02:53:53;;;;;;;9.85;5.22;;;;;;;16.00;55.04;100259.09;4989530;28;20517;-24
2021/09/02 02:56:18;;;;;;;12.27;5.25;;;;;;;15.92;55.43;100248.78;4989420;28;20517;-24
2021/09/02 02:58:44;;;;;;;10.00;4.63;;;;;;;15.71;56.00;100247.66;4989566;28;20081;-23
2021/09/02 03:01:10;;;;;;;11.32;5.47;;;;;;;15.74;56.42;100268.72;4989478;28;20101;-24
2021/09/02 03:03:36;;;;;;;11.52;4.93;;;;;;;15.59;56.67;100253.97;4989683;28;20049;-24
2021/09/02 03:06:01;;;;;;;9.68;4.93;;;;;;;15.76;56.63;100272.75;4989422;28;20049;-24
2021/09/02 03:08:27;;;;;;;9.15;5.00;;;;;;;15.84;56.50;100282.28;4988139;28;20900;-23
2021/09/02 03:10:52;;;;;;;9.57;5.10;;;;;;;15.70;57.07;100272.91;4989524;28;20113;-24
2021/09/02 03:13:18;;;;;;;8.45;4.60;;;;;;;15.73;56.59;100270.56;4989432;28;20184;-23
2021/09/02 03:15:43;;;;;;;8.70;4.82;;;;;;;15.95;56.13;100273.28;4989241;28;20430;-24
2021/09/02 03:18:09;;;;;;;9.45;5.18;;;;;;;15.91;56.21;100266.78;4989017;28;20034;-24
2021/09/02 03:20:34;;;;;;;9.45;5.05;;;;;;;15.91;55.84;100261.38;4987727;28;20470;-23
2021/09/02 03:23:00;;;;;;;9.18;5.30;;;;;;;15.97;55.36;100273.84;4988981;28;20022;-24
2021/09/02 03:25:25;;;;;;;9.95;5.10;;;;;;;15.89;55.68;100287.72;4989030;28;20042;-23
2021/09/02 03:27:51;;;;;;;8.77;5.03;;;;;;;15.88;55.94;100288.00;4987660;28;20054;-23
2021/09/02 03:30:16;;;;;;;9.05;5.40;;;;;;;15.90;55.65;100286.69;4988827;28;20018;-23
2021/09/02 03:32:41;;;;;;;8.68;4.93;;;;;;;15.87;55.65;100268.34;4989147;28;20034;-23
2021/09/02 03:35:07;;;;;;;8.48;4.13;;;;;;;15.75;55.64;100257.72;4988872;28;20034;-23
2021/09/02 03:37:33;;;;;;;9.20;5.07;;;;;;;16.07;55.33;100284.72;4988279;28;20089;-24
2021/09/02 03:39:59;;;;;;;8.85;4.70;;;;;;;15.90;55.63;100278.59;4988752;28;20033;-23
2021/09/02 03:42:24;;;;;;;9.73;5.38;;;;;;;15.89;55.74;100285.03;4988919;28;20880;-23
2021/09/02 03:44:49;;;;;;;11.02;5.10;;;;;;;15.95;55.83;100275.97;4986966;28;20030;-23
2021/09/02 03:47:15;;;;;;;10.52;6.03;;;;;;;16.11;55.46;100303.06;4988947;28;20411;-24
2021/09/02 03:49:40;;;;;;;12.32;5.45;;;;;;;16.20;55.01;100288.94;4988707;28;20037;-23
2021/09/02 03:52:06;;;;;;;9.10;4.90;;;;;;;16.15;55.41;100291.56;4987109;28;20038;-23
2021/09/02 03:54:32;;;;;;;9.02;5.32;;;;;;;16.10;55.30;100290.69;4988664;28;20061;-24
2021/09/02 03:56:57;;;;;;;9.73;5.15;;;;;;;16.03;55.78;100309.69;4988498;28;20037;-23
2021/09/02 03:59:23;;;;;;;10.15;5.43;;;;;;;16.11;55.59;100313.84;4988318;28;20458;-23
2021/09/02 04:01:48;;;;;;;10.05;5.13;;;;;;;16.12;55.13;100283.16;4988273;28;20097;-23
2021/09/02 04:04:14;;;;;;;11.32;5.07;;;;;;;16.17;55.06;100296.69;4988152;28;20596;-24
2021/09/02 04:06:39;;;;;;;10.38;5.25;;;;;;;16.29;54.97;100312.72;4988199;28;20034;-23
2021/09/02 04:09:04;;;;;;;9.02;4.95;;;;;;;16.27;55.07;100313.78;4988208;28;20029;-24
2021/09/02 04:11:30;;;;;;;8.57;4.97;;;;;;;16.32;54.68;100304.94;4988250;28;20030;-24
2021/09/02 04:13:55;;;;;;;9.05;5.47;;;;;;;16.32;55.31;100321.09;4988304;28;20035;-24
2021/09/02 04:16:22;;;;;;;10.63;5.50;;;;;;;16.32;54.76;100299.56;4988529;28;20101;-23
2021/09/02 04:18:48;;;;;;;10.93;5.72;;;;;;;16.45;54.87;100323.41;4988213;28;20026;-23
2021/09/02 04:21:13;;;;;;;9.15;5.03;;;;;;;16.46;54.23;100321.53;4988388;28;20057;-24
2021/09/02 04:23:39;;;;;;;8.82;5.10;;;;;;;16.67;54.44;100334.16;4988553;28;20041;-23
2021/09/02 04:26:04;;;;;;;10.38;5.20;;;;;;;16.47;54.89;100329.34;4987474;28;20073;-23
2021/09/02 04:28:30;;;;;;;9.38;5.53;;;;;;;16.48;54.68;100320.22;4987837;28;20055;-23
2021/09/02 04:30:55;;;;;;;10.93;5.35;;;;;;;16.63;54.36;100326.81;4986621;28;20121;-24
2021/09/02 04:33:21;;;;;;;9.98;5.40;;;;;;;16.58;54.38;100334.88;4987901;28;20045;-24
2021/09/02 04:35:46;;;;;;;8.70;4.47;;;;;;;16.63;54.28;100333.03;4987959;28;20838;-23
2021/09/02 04:38:12;;;;;;;10.02;5.57;;;;;;;16.84;54.40;100342.19;4987622;28;20038;-24
2021/09/02 04:40:37;;;;;;;8.40;5.28;;;;;;;16.76;54.00;100334.53;4988259;28;20584;-24
2021/09/02 04:43:03;;;;;;;11.52;5.07;;;;;;;16.83;53.91;100343.22;4987739;28;20037;-23
2021/09/02 04:45:28;;;;;;;9.73;5.13;;;;;;;16.91;53.99;100346.56;4987887;28;20061;-23
2021/09/02 04:47:54;;;;;;;9.07;5.75;;;;;;;16.95;54.06;100353.06;4987892;28;20414;-23
2021/09/02 04:50:19;;;;;;;8.27;4.45;;;;;;;17.11;53.42;100343.25;4987891;28;20092;-23
2021/09/02 04:52:45;;;;;;;9.80;5.07;;;;;;;17.23;53.16;100342.00;4987766;28;20031;-23
2021/09/02 04:55:11;;;;;;;8.20;4.93;;;;;;;17.22;53.17;100345.78;4988026;28;20050;-23
2021/09/02 04:57:37;;;;;;;7.75;4.78;;;;;;;17.30;52.71;100340.97;4991204;28;20813;-24
2021/09/02 05:00:04;;;;;;;10.13;5.28;;;;;;;17.28;53.18;100349.31;4991580;28;20533;-23
2021/09/02 05:02:29;;;;;;;11.77;4.68;;;;;;;17.23;53.10;100350.09;4991907;28;20096;-23
2021/09/02 05:04:55;;;;;;;8.48;4.88;;;;;;;17.50;52.79;100346.53;4991730;28;20026;-24
2021/09/02 05:07:20;;;;;;;13.90;4.78;;;;;;;17.40;52.27;100330.28;4991524;28;20403;-23
2021/09/02 05:09:46;;;;;;;8.90;4.88;;;;;;;17.66;52.03;100356.38;4991600;28;20033;-23
2021/09/02 05:12:11;;;;;;;8.82;4.53;;;;;;;17.62;51.33;100339.09;4991260;28;20379;-23
2021/09/02 05:14:37;;;;;;;8.38;4.82;;;;;;;17.81;51.64;100368.34;4991306;28;20030;-23
2021/09/02 05:17:02;;;;;;;8.57;4.25;;;;;;;17.83;51.11;100366.22;4991409;28;20038;-24
2021/09/02 05:19:28;;;;;;;12.10;5.35;;;;;;;17.78;51.55;100348.09;4991520;28;20029;-23
2021/09/02 05:21:53;;;;;;;7.30;4.70;;;;;;;17.88;51.01;100336.59;4991273;28;20030;-23
2021/09/02 05:24:19;;;;;;;10.30;5.50;;;;;;;17.97;51.01;100355.78;4991001;28;20061;-23
2021/09/02 05:26:44;;;;;;;8.55;4.70;;;;;;;18.19;50.46;100363.75;4991229;28;20030;-23
2021/09/02 05:29:10;;;;;;;8.98;4.28;;;;;;;17.93;50.41;100355.50;4991359;28;20150;-23
2021/09/02 05:31:35;;;;;;;9.10;4.47;;;;;;;17.94;50.54;100343.66;4991224;28;20037;-23
2021/09/02 05:34:01;;;;;;;11.18;4.53;;;;;;;18.10;50.16;100360.72;4991254;28;20065;-23
2021/09/02 05:36:26;;;;;;;8.77;4.88;;;;;;;18.17;50.55;100361.31;4991123;28;20034;-23
2021/09/02 05:38:51;;;;;;;7.60;4.90;;;;;;;18.26;50.18;100367.81;4991313;28;20061;-24
2021/09/02 05:41:17;;;;;;;8.68;4.95;;;;;;;18.40;49.62;100362.75;4991111;28;20513;-23
2021/09/02 05:43:42;;;;;;;11.25;5.32;;;;;;;18.48;49.70;100367.66;4990870;28;20034;-23
2021/09/02 05:46:08;;;;;;;6.82;4.18;;;;;;;18.46;49.73;100375.19;4990643;28;20026;-24
2021/09/02 05:48:33;;;;;;;9.43;4.80;;;;;;;18.41;49.11;100356.28;4990866;28;20422;-23
2021/09/02 05:50:59;;;;;;;7.88;4.45;;;;;;;18.64;49.00;100370.44;4990736;28;20080;-23
2021/09/02 05:53:24;;;;;;;7.20;4.40;;;;;;;18.81;48.77;100362.13;4990969;28;20038;-24
2021/09/02 05:55:50;;;;;;;9.75;4.60;;;;;;;18.83;48.33;100363.47;4990704;28;20030;-24
2021/09/02 05:58:17;;;;;;;7.63;4.28;;;;;;;18.99;48.05;100368.94;4990239;28;20034;-23
2021/09/02 06:00:42;;;;;;;8.15;4.55;;;;;;;18.85;48.47;100353.22;4990692;28;20026;-24
2021/09/02 06:03:08;;;;;;;7.40;5.03;;;;;;;19.00;48.29;100362.44;4990668;28;20030;-23
2021/09/02 06:05:33;;;;;;;7.07;4.03;;;;;;;18.89;48.60;100367.00;4990690;28;20088;-24
2021/09/02 06:07:59;;;;;;;8.50;5.25;;;;;;;18.96;48.52;100362.16;4990150;28;20046;-23
2021/09/02 06:10:24;;;;;;;7.60;4.13;;;;;;;18.97;48.12;100344.88;4990600;28;20716;-23
2021/09/02 06:12:50;;;;;;;11.23;4.68;;;;;;;18.93;48.31;100351.06;4990380;28;20063;-23
2021/09/02 06:15:15;;;;;;;10.02;5.50;;;;;;;19.34;47.00;100368.16;4990324;28;20475;-23
2021/09/02 06:17:41;;;;;;;9.25;4.40;;;;;;;19.37;47.31;100356.81;4989135;28;20061;-23
2021/09/02 06:20:07;;;;;;;10.73;4.78;;;;;;;19.21;47.02;100353.28;4989967;28;20112;-23
2021/09/02 06:22:32;;;;;;;8.65;4.82;;;;;;;19.78;46.76;100366.81;4990251;28;20153;-24
2021/09/02 06:24:58;;;;;;;7.78;4.82;;;;;;;19.42;46.57;100353.28;4990245;28;20193;-23
2021/09/02 06:27:24;;;;;;;7.30;4.13;;;;;;;19.38;46.91;100368.44;4989900;28;20053;-23
2021/09/02 06:29:49;;;;;;;9.30;5.32;;;;;;;19.40;47.26;100368.97;4990730;28;20031;-23
2021/09/02 06:32:15;;;;;;;6.85;4.60;;;;;;;19.51;46.66;100362.47;4989914;28;20046;-23
2021/09/02 06:34:40;;;;;;;7.40;4.10;;;;;;;19.70;46.52;100378.97;4989980;28;20037;-23
2021/09/02 06:37:05;;;;;;;8.98;4.28;;;;;;;19.62;46.10;100376.81;4989918;28;20414;-24
2021/09/02 06:39:31;;;;;;;11.98;7.93;;;;;;;19.60;46.07;100377.09;4990143;28;20041;-24
2021/09/02 06:41:56;;;;;;;9.00;4.13;;;;;;;19.85;46.13;100386.28;4990031;28;20867;-24
2021/09/02 06:44:22;;;;;;;8.43;4.78;;;;;;;20.17;45.84;100375.13;4989763;28;20056;-24
2021/09/02 06:46:47;;;;;;;7.47;4.40;;;;;;;20.30;44.65;100384.56;4990512;28;20038;-23
2021/09/02 06:49:13;;;;;;;6.97;3.97;;;;;;;20.23;45.05;100381.34;4989861;28;20043;-23
2021/09/02 06:51:39;;;;;;;8.43;4.32;;;;;;;20.28;45.29;100382.13;4989805;28;20093;-23
2021/09/02 06:54:05;;;;;;;7.25;4.30;;;;;;;20.33;44.71;100373.19;4989556;28;20091;-23
2021/09/02 06:56:31;;;;;;;8.07;4.25;;;;;;;20.22;44.33;100360.75;4989668;28;20030;-23
2021/09/02 06:58:56;;;;;;;10.98;5.07;;;;;;;20.47;44.69;100382.34;4989670;28;20037;-23
2021/09/02 07:01:22;;;;;;;9.15;4.88;;;;;;;20.75;44.79;100376.56;4989868;28;20030;-23
2021/09/02 07:03:47;;;;;;;8.20;4.30;;;;;;;20.86;44.06;100370.81;4989409;28;20038;-23
2021/09/02 07:06:12;;;;;;;10.57;4.95;;;;;;;21.23;43.90;100380.31;4989374;28;20027;-24
2021/09/02 07:08:38;;;;;;;6.10;3.80;;;;;;;20.95;43.10;100391.91;4989422;28;20031;-23
2021/09/02 07:11:04;;;;;;;8.13;4.05;;;;;;;20.87;43.46;100383.25;4989494;28;20823;-23
2021/09/02 07:13:30;;;;;;;9.88;4.43;;;;;;;20.67;44.03;100381.44;4989427;28;20034;-23
2021/09/02 07:15:55;;;;;;;10.15;4.60;;;;;;;20.87;43.87;100382.44;4989645;28;20474;-23
2021/09/02 07:18:21;;;;;;;9.45;4.93;;;;;;;21.20;43.23;100377.34;4987610;28;20041;-23
2021/09/02 07:20:46;;;;;;;8.40;4.38;;;;;;;21.31;43.01;100392.47;4987837;28;20438;-23
2021/09/02 07:23:12;;;;;;;9.18;4.70;;;;;;;21.37;42.92;100380.50;4989535;28;20034;-23
2021/09/02 07:25:37;;;;;;;8.65;4.18;;;;;;;21.47;42.78;100374.19;4989098;28;20038;-23
2021/09/02 07:28:03;;;;;;;7.43;4.85;;;;;;;21.55;42.56;100376.28;4987466;28;20129;-23
2021/09/02 07:30:28;;;;;;;7.00;4.57;;;;;;;21.67;41.74;100382.16;4989189;28;20023;-24
2021/09/02 07:32:54;;;;;;;9.30;4.68;;;;;;;21.55;42.21;100351.88;4988857;28;20038;-23
2021/09/02 07:35:19;;;;;;;7.53;4.22;;;;;;;21.54;41.76;100377.41;4988741;28;20779;-23
2021/09/02 07:37:45;;;;;;;6.55;4.10;;;;;;;21.64;41.58;100368.38;4988866;28;20038;-23
2021/09/02 07:40:11;;;;;;;9.30;4.05;;;;;;;21.65;41.55;100370.78;4987393;28;20033;-23
2021/09/02 07:42:36;;;;;;;8.85;4.38;;;;;;;22.18;40.94;100361.03;4988686;28;20061;-24
2021/09/02 07:45:02;;;;;;;6.97;3.58;;;;;;;22.49;40.46;100383.22;4989200;28;20526;-23
2021/09/02 07:47:28;;;;;;;7.75;3.45;;;;;;;22.28;39.74;100379.94;4988838;28;20037;-24
2021/09/02 07:49:53;;;;;;;7.82;4.00;;;;;;;22.42;39.46;100383.59;4988573;28;20046;-23
2021/09/02 07:52:19;;;;;;;7.65;3.88;;;;;;;22.29;39.61;100378.84;4988526;28;20034;-23
2021/09/02 07:54:44;;;;;;;8.13;4.03;;;;;;;22.27;40.25;100381.88;4988864;28;20077;-24
2021/09/02 07:57:10;;;;;;;7.32;4.20;;;;;;;22.36;40.27;100384.75;4988593;28;20426;-24
2021/09/02 07:59:35;;;;;;;6.43;3.75;;;;;;;22.63;39.56;100391.47;4988792;28;20034;-24
2021/09/02 08:02:01;;;;;;;6.90;4.18;;;;;;;22.89;38.89;100380.28;4988136;28;20418;-24
2021/09/02 08:04:26;;;;;;;8.57;4.47;;;;;;;22.82;39.74;100376.00;4988208;28;20041;-24
2021/09/02 08:06:52;;;;;;;9.43;4.25;;;;;;;22.72;39.21;100372.59;4988313;28;20034;-24
2021/09/02 08:09:17;;;;;;;7.85;4.32;;;;;;;22.85;38.25;100369.19;4987099;28;20026;-23
2021/09/02 08:11:43;;;;;;;7.57;3.70;;;;;;;22.83;38.38;100371.38;4986988;28;20026;-23
2021/09/02 08:14:08;;;;;;;7.78;4.38;;;;;;;22.84;38.85;100360.22;4988199;28;20472;-24
2021/09/02 08:16:33;;;;;;;7.38;3.47;;;;;;;22.92;37.69;100375.03;4988246;28;20038;-24
2021/09/02 08:18:59;;;;;;;6.95;4.20;;;;;;;23.17;37.69;100365.75;4987869;28;20030;-24
2021/09/02 08:21:25;;;;;;;6.63;3.88;;;;;;;22.99;37.79;100363.81;4988008;28;20038;-24
2021/09/02 08:23:51;;;;;;;7.45;4.45;;;;;;;23.29;37.08;100364.47;4988062;28;20121;-23
2021/09/02 08:26:16;;;;;;;6.85;3.40;;;;;;;23.38;36.33;100366.22;4987863;28;20034;-24
2021/09/02 08:28:42;;;;;;;6.25;3.55;;;;;;;23.41;37.55;100365.59;4988009;28;20128;-23
2021/09/02 08:31:07;;;;;;;6.47;3.78;;;;;;;23.53;36.71;100345.28;4987770;28;20026;-24
2021/09/02 08:33:33;;;;;;;6.90;4.00;;;;;;;23.79;36.83;100351.13;4988129;28;20724;-23
2021/09/02 08:35:58;;;;;;;6.45;3.95;;;;;;;24.01;37.00;100356.69;4988019;28;20049;-23
2021/09/02 08:38:24;;;;;;;6.78;3.55;;;;;;;24.02;35.95;100333.78;4987822;28;20030;-24
2021/09/02 08:40:49;;;;;;;7.85;3.78;;;;;;;23.83;36.43;100338.53;4987974;28;20550;-24
2021/09/02 08:43:16;;;;;;;6.18;3.50;;;;;;;23.75;36.10;100347.34;4987914;28;20026;-24
2021/09/02 08:45:42;;;;;;;4.75;3.03;;;;;;;23.70;36.25;100355.59;4987936;28;20031;-23
2021/09/02 08:48:08;;;;;;;8.27;3.78;;;;;;;24.13;36.23;100347.19;4987537;28;20063;-24
2021/09/02 08:50:35;;;;;;;17.75;6.80;;;;;;;24.41;35.53;100342.53;4987662;28;20502;-23
2021/09/02 08:53:01;;;;;;;11.90;5.20;;;;;;;24.50;35.63;100345.38;4986655;28;20041;-23
2021/09/02 08:55:26;;;;;;;6.97;3.60;;;;;;;24.64;34.77;100336.09;4987632;28;20039;-23
2021/09/02 08:57:52;;;;;;;7.00;3.70;;;;;;;24.45;34.40;100322.53;4988185;28;20569;-23
2021/09/02 09:00:19;;;;;;;8.57;3.38;;;;;;;24.81;34.25;100338.16;4986371;28;20482;-24
2021/09/02 09:02:47;;;;;;;4.90;3.00;;;;;;;24.79;33.97;100321.28;4987831;28;20034;-24
2021/09/02 09:05:16;;;;;;;8.63;3.42;;;;;;;24.77;33.76;100322.72;4986634;28;20288;-24
2021/09/02 09:07:44;;;;;;;6.80;3.60;;;;;;;24.69;34.08;100313.34;4987620;28;20053;-23
2021/09/02 09:10:19;;;;;;;;;;;;;;;24.92;33.67;100329.72;4987672;28;20884;-23
2021/09/02 09:12:46;;;;;;;5.00;3.30;;;;;;;24.95;32.86;100321.75;4987759;28;19917;-23
2021/09/02 09:15:23;;;;;;;5.90;3.25;;;;;;;24.71;33.76;100324.75;4987769;28;20031;-23
2021/09/02 09:17:49;;;;;;;5.50;3.65;;;;;;;24.90;32.53;100318.31;4986214;28;20069;-23
2021/09/02 09:20:21;;;;;;;11.93;3.42;;;;;;;25.00;33.26;100320.81;4987403;28;20026;-23
2021/09/02 09:22:57;;;;;;;5.40;3.20;;;;;;;24.95;33.37;100326.41;4987524;28;20038;-23
2021/09/02 09:25:23;;;;;;;7.60;3.38;;;;;;;24.94;32.34;100322.84;4987487;28;20491;-24
2021/09/02 09:27:53;;;;;;;5.30;2.60;;;;;;;24.99;32.99;100313.75;4987825;28;20068;-23
2021/09/02 09:30:28;;;;;;;5.18;2.80;;;;;;;25.10;32.64;100315.09;4987611;28;20030;-23
2021/09/02 09:32:55;;;;;;;5.57;3.25;;;;;;;24.93;32.91;100329.44;4987377;28;20048;-23
2021/09/02 09:35:27;;;;;;;5.35;2.90;;;;;;;25.17;32.84;100309.22;4987721;28;20060;-23
2021/09/02 09:38:15;;;;;;;6.78;3.05;;;;;;;25.37;32.19;100303.25;4987502;28;20465;-23
2021/09/02 09:40:43;;;;;;;4.85;2.95;;;;;;;25.57;32.39;100315.59;4987635;28;20034;-23
2021/09/02 09:43:13;;;;;;;;;;;;;;;25.68;32.12;100307.91;4989636;28;20038;-23
2021/09/02 09:45:46;;;;;;;5.45;3.10;;;;;;;25.63;31.82;100294.41;4991251;28;19910;-24
2021/09/02 09:48:29;;;;;;;6.57;2.75;;;;;;;25.51;32.47;100311.38;4990821;28;20040;-24
2021/09/02 09:51:16;;;;;;;5.40;2.60;;;;;;;25.67;31.39;100311.78;4991272;28;20042;-23
2021/09/02 09:53:52;;;;;;;7.03;3.25;;;;;;;25.87;31.28;100302.22;4990674;28;20121;-23
2021/09/02 09:56:19;;;;;;;7.00;3.03;;;;;;;26.29;30.91;100305.41;4990569;28;20411;-23
2021/09/02 09:58:46;;;;;;;6.95;2.92;;;;;;;26.67;31.46;100291.19;4989312;28;20121;-23
2021/09/02 10:01:12;;;;;;;5.68;3.22;;;;;;;26.17;31.36;100297.81;4990492;28;20056;-24
2021/09/02 10:03:38;;;;;;;5.85;3.00;;;;;;;26.34;31.24;100283.41;4990144;28;20548;-23
2021/09/02 10:06:05;;;;;;;6.05;3.00;;;;;;;26.66;30.82;100281.34;4989111;28;20062;-23
2021/09/02 10:08:33;;;;;;;5.38;2.80;;;;;;;26.37;29.97;100285.47;4990435;28;20038;-23
2021/09/02 10:10:59;;;;;;;5.85;2.70;;;;;;;26.59;30.67;100287.31;4990612;28;20077;-24
2021/09/02 10:13:25;;;;;;;5.20;2.80;;;;;;;26.14;30.77;100297.69;4989203;28;20046;-23
2021/09/02 10:15:51;;;;;;;4.50;2.42;;;;;;;26.07;30.41;100287.19;4990218;28;20166;-24
2021/09/02 10:18:17;;;;;;;5.72;3.15;;;;;;;26.72;30.80;100291.00;4990714;28;20046;-24
2021/09/02 10:20:42;;;;;;;6.35;3.03;;;;;;;27.04;30.06;100275.22;4989120;28;20069;-24
2021/09/02 10:23:08;;;;;;;5.18;2.97;;;;;;;27.01;30.63;100284.06;4988907;28;20033;-23
2021/09/02 10:25:37;;;;;;;4.97;2.78;;;;;;;27.17;29.38;100265.19;4972852;28;20035;-23
2021/09/02 10:28:12;;;;;;;5.38;3.20;;;;;;;26.90;29.61;100291.00;4989975;28;20108;-23
2021/09/02 10:30:43;;;;;;;5.88;3.25;;;;;;;27.08;30.11;100265.22;4990167;28;20026;-23
2021/09/02 10:33:31;;;;;;;6.70;2.78;;;;;;;27.48;29.04;100273.19;4989997;28;20037;-23
2021/09/02 10:35:57;;;;;;;5.65;3.08;;;;;;;27.52;29.00;100265.91;4990049;28;20019;-24
2021/09/02 10:38:41;;;;;;;5.07;3.00;;;;;;;28.00;28.82;100267.50;4989846;28;20080;-23
2021/09/02 10:41:07;;;;;;;5.53;2.55;;;;;;;27.71;28.49;100281.19;4989917;28;20035;-23
2021/09/02 10:43:51;;;;;;;4.20;2.15;;;;;;;27.36;28.73;100275.81;4989964;28;20451;-23
2021/09/02 10:46:28;;;;;;;4.80;2.50;;;;;;;27.75;28.13;100271.16;4989869;28;20050;-23
2021/09/02 10:48:54;;;;;;;;;;;;;;;28.08;28.55;100271.34;4990263;28;20161;-23
2021/09/02 10:51:35;;;;;;;5.45;2.25;;;;;;;27.58;29.10;100256.41;4989744;28;19929;-23
2021/09/02 10:54:03;;;;;;;5.03;2.63;;;;;;;27.56;29.05;100258.66;4989319;28;20560;-23
2021/09/02 10:56:32;;;;;;;5.40;2.40;;;;;;;27.41;29.15;100278.38;4989652;28;20454;-23
2021/09/02 10:58:58;;;;;;;9.15;2.58;;;;;;;27.40;28.50;100279.50;4989598;28;20034;-23
2021/09/02 11:01:23;;;;;;;4.50;2.60;;;;;;;27.73;28.28;100267.97;4989553;28;20618;-23
2021/09/02 11:03:49;;;;;;;4.68;2.40;;;;;;;28.03;28.12;100266.03;4989659;28;20033;-23
2021/09/02 11:06:15;;;;;;;5.22;2.55;;;;;;;27.79;29.21;100281.13;4989220;28;20061;-23
2021/09/02 11:08:40;;;;;;;4.65;2.63;;;;;;;28.05;28.13;100261.84;4989638;28;20026;-23
2021/09/02 11:11:20;;;;;;;4.57;2.15;;;;;;;28.43;27.16;100263.66;4988221;28;20174;-23
2021/09/02 11:13:47;;;;;;;3.58;2.15;;;;;;;28.13;27.71;100248.41;4989198;28;20042;-23
2021/09/02 11:16:20;;;;;;;3.63;2.20;;;;;;;28.26;27.42;100269.28;4989161;28;20038;-23
2021/09/02 11:18:51;;;;;;;3.67;2.05;;;;;;;28.29;25.95;100279.59;4989572;28;20273;-24
2021/09/02 11:21:23;;;;;;;4.18;2.10;;;;;;;28.38;26.74;100252.91;4989455;28;20026;-23